sensor_id;sensor_type;location;lat;lon;timestamp;P1;durP1;ratioP1;P2;durP2;ratioP2
80991;SDS011;70454;45.654;10.418;2023-06-22T00:01:17;13.68;;;8.60;;
80991;SDS011;70454;45.654;10.418;2023-06-22T00:03:42;15.27;;;8.57;;
80991;SDS011;70454;45.654;10.418;2023-06-22T00:06:08;15.57;;;9.30;;
80991;SDS011;70454;45.654;10.418;2023-06-22T00:08:33;12.07;;;8.70;;
80991;SDS011;70454;45.654;10.418;2023-06-22T00:10:59;15.60;;;8.73;;
80991;SDS011;70454;45.654;10.418;2023-06-22T00:13:24;10.35;;;7.95;;
80991;SDS011;70454;45.654;10.418;2023-06-22T00:15:49;14.50;;;9.25;;
80991;SDS011;70454;45.654;10.418;2023-06-22T00:18:15;17.60;;;9.45;;
80991;SDS011;70454;45.654;10.418;2023-06-22T00:20:41;16.10;;;8.63;;
80991;SDS011;70454;45.654;10.418;2023-06-22T00:23:07;20.60;;;10.00;;
80991;SDS011;70454;45.654;10.418;2023-06-22T00:25:33;16.85;;;10.70;;
80991;SDS011;70454;45.654;10.418;2023-06-22T00:27:59;18.30;;;9.55;;
80991;SDS011;70454;45.654;10.418;2023-06-22T00:30:25;16.73;;;9.52;;
80991;SDS011;70454;45.654;10.418;2023-06-22T00:32:50;17.40;;;9.88;;
80991;SDS011;70454;45.654;10.418;2023-06-22T00:35:15;16.17;;;10.30;;
80991;SDS011;70454;45.654;10.418;2023-06-22T00:37:41;20.25;;;9.80;;
80991;SDS011;70454;45.654;10.418;2023-06-22T00:40:07;17.13;;;9.20;;
80991;SDS011;70454;45.654;10.418;2023-06-22T00:42:36;14.25;;;9.82;;
80991;SDS011;70454;45.654;10.418;2023-06-22T00:45:01;16.35;;;10.43;;
80991;SDS011;70454;45.654;10.418;2023-06-22T00:47:27;14.52;;;9.23;;
80991;SDS011;70454;45.654;10.418;2023-06-22T00:49:52;18.25;;;9.48;;
80991;SDS011;70454;45.654;10.418;2023-06-22T00:52:21;17.85;;;9.63;;
80991;SDS011;70454;45.654;10.418;2023-06-22T00:54:51;16.52;;;9.45;;
80991;SDS011;70454;45.654;10.418;2023-06-22T00:57:17;18.10;;;10.48;;
80991;SDS011;70454;45.654;10.418;2023-06-22T00:59:43;18.92;;;10.30;;
80991;SDS011;70454;45.654;10.418;2023-06-22T01:02:09;20.10;;;9.35;;
80991;SDS011;70454;45.654;10.418;2023-06-22T01:04:35;18.35;;;9.10;;
80991;SDS011;70454;45.654;10.418;2023-06-22T01:09:32;16.15;;;8.43;;
80991;SDS011;70454;45.654;10.418;2023-06-22T01:12:02;14.75;;;9.55;;
80991;SDS011;70454;45.654;10.418;2023-06-22T01:14:43;14.88;;;9.02;;
80991;SDS011;70454;45.654;10.418;2023-06-22T01:17:12;19.70;;;9.50;;
80991;SDS011;70454;45.654;10.418;2023-06-22T01:19:45;18.42;;;9.45;;
80991;SDS011;70454;45.654;10.418;2023-06-22T01:22:15;16.90;;;8.32;;
80991;SDS011;70454;45.654;10.418;2023-06-22T01:24:45;17.73;;;10.02;;
80991;SDS011;70454;45.654;10.418;2023-06-22T01:30:16;17.42;;;9.13;;
80991;SDS011;70454;45.654;10.418;2023-06-22T01:32:42;17.05;;;9.98;;
80991;SDS011;70454;45.654;10.418;2023-06-22T01:35:08;19.67;;;10.25;;
80991;SDS011;70454;45.654;10.418;2023-06-22T01:37:34;14.80;;;9.77;;
80991;SDS011;70454;45.654;10.418;2023-06-22T01:40:01;15.23;;;9.73;;
80991;SDS011;70454;45.654;10.418;2023-06-22T01:42:29;15.60;;;9.60;;
80991;SDS011;70454;45.654;10.418;2023-06-22T01:44:55;16.38;;;9.98;;
80991;SDS011;70454;45.654;10.418;2023-06-22T01:47:24;18.00;;;10.30;;
80991;SDS011;70454;45.654;10.418;2023-06-22T01:49:50;20.08;;;11.27;;
80991;SDS011;70454;45.654;10.418;2023-06-22T01:52:16;16.02;;;10.25;;
80991;SDS011;70454;45.654;10.418;2023-06-22T01:54:42;19.38;;;10.93;;
80991;SDS011;70454;45.654;10.418;2023-06-22T01:57:08;22.17;;;10.77;;
80991;SDS011;70454;45.654;10.418;2023-06-22T02:02:14;17.50;;;10.35;;
80991;SDS011;70454;45.654;10.418;2023-06-22T02:04:44;14.57;;;10.30;;
80991;SDS011;70454;45.654;10.418;2023-06-22T02:07:14;14.30;;;8.70;;
80991;SDS011;70454;45.654;10.418;2023-06-22T02:12:07;15.20;;;9.05;;
80991;SDS011;70454;45.654;10.418;2023-06-22T02:14:34;14.38;;;9.45;;
80991;SDS011;70454;45.654;10.418;2023-06-22T02:17:00;15.90;;;8.65;;
80991;SDS011;70454;45.654;10.418;2023-06-22T02:19:26;16.92;;;9.43;;
80991;SDS011;70454;45.654;10.418;2023-06-22T02:21:52;15.27;;;9.00;;
80991;SDS011;70454;45.654;10.418;2023-06-22T02:24:17;13.52;;;8.52;;
80991;SDS011;70454;45.654;10.418;2023-06-22T02:26:43;17.23;;;10.00;;
80991;SDS011;70454;45.654;10.418;2023-06-22T02:29:10;17.95;;;9.43;;
80991;SDS011;70454;45.654;10.418;2023-06-22T02:31:36;16.45;;;9.70;;
80991;SDS011;70454;45.654;10.418;2023-06-22T02:34:01;18.48;;;8.95;;
80991;SDS011;70454;45.654;10.418;2023-06-22T02:36:26;20.70;;;10.43;;
80991;SDS011;70454;45.654;10.418;2023-06-22T02:38:55;19.92;;;9.73;;
80991;SDS011;70454;45.654;10.418;2023-06-22T02:41:23;15.63;;;9.57;;
80991;SDS011;70454;45.654;10.418;2023-06-22T02:43:49;16.70;;;9.43;;
80991;SDS011;70454;45.654;10.418;2023-06-22T02:46:14;17.30;;;8.80;;
80991;SDS011;70454;45.654;10.418;2023-06-22T02:48:40;17.08;;;9.60;;
80991;SDS011;70454;45.654;10.418;2023-06-22T02:51:06;14.13;;;8.98;;
80991;SDS011;70454;45.654;10.418;2023-06-22T02:53:32;18.58;;;8.43;;
80991;SDS011;70454;45.654;10.418;2023-06-22T02:55:57;14.70;;;8.90;;
80991;SDS011;70454;45.654;10.418;2023-06-22T02:58:23;18.88;;;8.65;;
80991;SDS011;70454;45.654;10.418;2023-06-22T03:00:49;12.35;;;8.50;;
80991;SDS011;70454;45.654;10.418;2023-06-22T03:03:17;16.58;;;9.77;;
80991;SDS011;70454;45.654;10.418;2023-06-22T03:05:43;15.73;;;8.23;;
80991;SDS011;70454;45.654;10.418;2023-06-22T03:08:08;16.27;;;9.48;;
80991;SDS011;70454;45.654;10.418;2023-06-22T03:10:34;17.25;;;9.50;;
80991;SDS011;70454;45.654;10.418;2023-06-22T03:12:59;14.35;;;9.95;;
80991;SDS011;70454;45.654;10.418;2023-06-22T03:15:25;17.35;;;9.50;;
80991;SDS011;70454;45.654;10.418;2023-06-22T03:17:51;17.05;;;9.73;;
80991;SDS011;70454;45.654;10.418;2023-06-22T03:20:16;14.13;;;8.65;;
80991;SDS011;70454;45.654;10.418;2023-06-22T03:22:41;16.25;;;9.07;;
80991;SDS011;70454;45.654;10.418;2023-06-22T03:25:07;18.83;;;11.45;;
80991;SDS011;70454;45.654;10.418;2023-06-22T03:27:39;21.40;;;10.15;;
80991;SDS011;70454;45.654;10.418;2023-06-22T03:30:06;16.23;;;9.25;;
80991;SDS011;70454;45.654;10.418;2023-06-22T03:32:32;15.68;;;10.23;;
80991;SDS011;70454;45.654;10.418;2023-06-22T03:34:58;15.77;;;9.32;;
80991;SDS011;70454;45.654;10.418;2023-06-22T03:37:26;15.75;;;9.52;;
80991;SDS011;70454;45.654;10.418;2023-06-22T03:39:52;14.57;;;9.35;;
80991;SDS011;70454;45.654;10.418;2023-06-22T03:42:18;12.07;;;9.40;;
80991;SDS011;70454;45.654;10.418;2023-06-22T03:44:43;18.33;;;9.68;;
80991;SDS011;70454;45.654;10.418;2023-06-22T03:47:09;18.33;;;9.52;;
80991;SDS011;70454;45.654;10.418;2023-06-22T03:49:34;18.92;;;9.23;;
80991;SDS011;70454;45.654;10.418;2023-06-22T03:52:01;16.95;;;10.68;;
80991;SDS011;70454;45.654;10.418;2023-06-22T03:54:27;20.10;;;9.88;;
80991;SDS011;70454;45.654;10.418;2023-06-22T03:56:53;12.43;;;9.63;;
80991;SDS011;70454;45.654;10.418;2023-06-22T03:59:18;13.35;;;10.10;;
80991;SDS011;70454;45.654;10.418;2023-06-22T04:01:44;15.48;;;8.98;;
80991;SDS011;70454;45.654;10.418;2023-06-22T04:04:09;17.38;;;9.50;;
80991;SDS011;70454;45.654;10.418;2023-06-22T04:06:35;16.48;;;9.93;;
80991;SDS011;70454;45.654;10.418;2023-06-22T04:09:00;14.95;;;10.15;;
80991;SDS011;70454;45.654;10.418;2023-06-22T04:11:26;16.83;;;10.07;;
80991;SDS011;70454;45.654;10.418;2023-06-22T04:13:51;18.30;;;9.30;;
80991;SDS011;70454;45.654;10.418;2023-06-22T04:16:17;14.43;;;9.60;;
80991;SDS011;70454;45.654;10.418;2023-06-22T04:18:42;16.75;;;9.07;;
80991;SDS011;70454;45.654;10.418;2023-06-22T04:21:08;14.18;;;9.20;;
80991;SDS011;70454;45.654;10.418;2023-06-22T04:23:33;15.55;;;9.32;;
80991;SDS011;70454;45.654;10.418;2023-06-22T04:25:58;17.83;;;9.13;;
80991;SDS011;70454;45.654;10.418;2023-06-22T04:28:26;15.20;;;9.70;;
80991;SDS011;70454;45.654;10.418;2023-06-22T04:30:52;13.98;;;8.30;;
80991;SDS011;70454;45.654;10.418;2023-06-22T04:33:17;16.95;;;9.38;;
80991;SDS011;70454;45.654;10.418;2023-06-22T04:35:46;13.85;;;8.55;;
80991;SDS011;70454;45.654;10.418;2023-06-22T04:38:12;13.38;;;9.18;;
80991;SDS011;70454;45.654;10.418;2023-06-22T04:40:39;14.35;;;8.73;;
80991;SDS011;70454;45.654;10.418;2023-06-22T04:43:05;14.57;;;9.52;;
80991;SDS011;70454;45.654;10.418;2023-06-22T04:45:31;19.67;;;10.38;;
80991;SDS011;70454;45.654;10.418;2023-06-22T04:47:57;14.73;;;10.10;;
80991;SDS011;70454;45.654;10.418;2023-06-22T04:50:23;17.52;;;10.43;;
80991;SDS011;70454;45.654;10.418;2023-06-22T04:52:49;18.75;;;9.95;;
80991;SDS011;70454;45.654;10.418;2023-06-22T04:55:15;18.52;;;10.38;;
80991;SDS011;70454;45.654;10.418;2023-06-22T04:57:45;15.88;;;9.15;;
80991;SDS011;70454;45.654;10.418;2023-06-22T05:00:13;16.55;;;9.77;;
80991;SDS011;70454;45.654;10.418;2023-06-22T05:02:42;16.25;;;10.07;;
80991;SDS011;70454;45.654;10.418;2023-06-22T05:05:08;17.42;;;9.88;;
80991;SDS011;70454;45.654;10.418;2023-06-22T05:07:38;18.30;;;10.65;;
80991;SDS011;70454;45.654;10.418;2023-06-22T05:12:38;17.60;;;10.68;;
80991;SDS011;70454;45.654;10.418;2023-06-22T05:15:04;23.13;;;11.13;;
80991;SDS011;70454;45.654;10.418;2023-06-22T05:17:31;22.80;;;11.30;;
80991;SDS011;70454;45.654;10.418;2023-06-22T05:19:56;24.98;;;12.00;;
80991;SDS011;70454;45.654;10.418;2023-06-22T05:22:21;19.02;;;10.80;;
80991;SDS011;70454;45.654;10.418;2023-06-22T05:24:47;16.88;;;11.25;;
80991;SDS011;70454;45.654;10.418;2023-06-22T05:27:13;18.63;;;12.05;;
80991;SDS011;70454;45.654;10.418;2023-06-22T05:29:39;23.38;;;11.82;;
80991;SDS011;70454;45.654;10.418;2023-06-22T05:32:04;19.98;;;10.52;;
80991;SDS011;70454;45.654;10.418;2023-06-22T05:34:30;22.88;;;11.05;;
80991;SDS011;70454;45.654;10.418;2023-06-22T05:36:56;17.38;;;10.05;;
80991;SDS011;70454;45.654;10.418;2023-06-22T05:39:23;16.42;;;10.02;;
80991;SDS011;70454;45.654;10.418;2023-06-22T05:41:49;17.77;;;11.60;;
80991;SDS011;70454;45.654;10.418;2023-06-22T05:44:14;19.63;;;11.63;;
80991;SDS011;70454;45.654;10.418;2023-06-22T05:46:43;18.73;;;10.45;;
80991;SDS011;70454;45.654;10.418;2023-06-22T05:49:09;27.65;;;11.00;;
80991;SDS011;70454;45.654;10.418;2023-06-22T05:51:36;23.55;;;11.38;;
80991;SDS011;70454;45.654;10.418;2023-06-22T05:54:01;21.92;;;12.48;;
80991;SDS011;70454;45.654;10.418;2023-06-22T05:56:27;20.17;;;11.38;;
80991;SDS011;70454;45.654;10.418;2023-06-22T05:58:52;21.02;;;10.30;;
80991;SDS011;70454;45.654;10.418;2023-06-22T06:01:18;17.30;;;9.57;;
80991;SDS011;70454;45.654;10.418;2023-06-22T06:03:43;19.98;;;9.77;;
80991;SDS011;70454;45.654;10.418;2023-06-22T06:06:09;22.23;;;9.70;;
80991;SDS011;70454;45.654;10.418;2023-06-22T06:08:36;15.45;;;10.02;;
80991;SDS011;70454;45.654;10.418;2023-06-22T06:11:01;21.25;;;9.60;;
80991;SDS011;70454;45.654;10.418;2023-06-22T06:13:27;19.95;;;9.00;;
80991;SDS011;70454;45.654;10.418;2023-06-22T06:15:52;15.15;;;9.52;;
80991;SDS011;70454;45.654;10.418;2023-06-22T06:18:20;19.20;;;9.85;;
80991;SDS011;70454;45.654;10.418;2023-06-22T06:20:45;21.90;;;10.40;;
80991;SDS011;70454;45.654;10.418;2023-06-22T06:23:11;18.20;;;10.02;;
80991;SDS011;70454;45.654;10.418;2023-06-22T06:25:36;13.98;;;9.80;;
80991;SDS011;70454;45.654;10.418;2023-06-22T06:28:02;29.55;;;10.20;;
80991;SDS011;70454;45.654;10.418;2023-06-22T06:30:28;16.30;;;7.95;;
80991;SDS011;70454;45.654;10.418;2023-06-22T06:33:07;15.77;;;8.43;;
80991;SDS011;70454;45.654;10.418;2023-06-22T06:35:33;17.40;;;8.90;;
80991;SDS011;70454;45.654;10.418;2023-06-22T06:38:10;21.23;;;9.05;;
80991;SDS011;70454;45.654;10.418;2023-06-22T06:40:36;19.02;;;9.90;;
80991;SDS011;70454;45.654;10.418;2023-06-22T06:43:01;22.25;;;9.88;;
80991;SDS011;70454;45.654;10.418;2023-06-22T06:45:27;18.60;;;8.63;;
80991;SDS011;70454;45.654;10.418;2023-06-22T06:47:53;16.63;;;10.75;;
80991;SDS011;70454;45.654;10.418;2023-06-22T06:50:19;21.10;;;8.48;;
80991;SDS011;70454;45.654;10.418;2023-06-22T06:52:45;19.48;;;8.02;;
80991;SDS011;70454;45.654;10.418;2023-06-22T06:55:11;17.17;;;8.73;;
80991;SDS011;70454;45.654;10.418;2023-06-22T06:57:39;20.98;;;9.50;;
80991;SDS011;70454;45.654;10.418;2023-06-22T07:00:05;14.18;;;8.10;;
80991;SDS011;70454;45.654;10.418;2023-06-22T07:02:35;24.50;;;10.15;;
80991;SDS011;70454;45.654;10.418;2023-06-22T07:05:00;19.52;;;9.18;;
80991;SDS011;70454;45.654;10.418;2023-06-22T07:07:28;18.73;;;9.77;;
80991;SDS011;70454;45.654;10.418;2023-06-22T07:09:54;14.65;;;7.80;;
80991;SDS011;70454;45.654;10.418;2023-06-22T07:12:19;20.08;;;7.72;;
80991;SDS011;70454;45.654;10.418;2023-06-22T07:14:44;19.65;;;8.10;;
80991;SDS011;70454;45.654;10.418;2023-06-22T07:17:10;16.35;;;8.35;;
80991;SDS011;70454;45.654;10.418;2023-06-22T07:19:35;18.70;;;8.80;;
80991;SDS011;70454;45.654;10.418;2023-06-22T07:22:01;17.40;;;8.13;;
80991;SDS011;70454;45.654;10.418;2023-06-22T07:24:26;16.67;;;7.78;;
80991;SDS011;70454;45.654;10.418;2023-06-22T07:26:52;17.73;;;7.78;;
80991;SDS011;70454;45.654;10.418;2023-06-22T07:29:17;17.65;;;7.45;;
80991;SDS011;70454;45.654;10.418;2023-06-22T07:31:45;16.67;;;6.97;;
80991;SDS011;70454;45.654;10.418;2023-06-22T07:34:10;16.00;;;7.00;;
80991;SDS011;70454;45.654;10.418;2023-06-22T07:36:36;14.18;;;6.70;;
80991;SDS011;70454;45.654;10.418;2023-06-22T07:39:04;20.77;;;6.68;;
80991;SDS011;70454;45.654;10.418;2023-06-22T07:41:30;27.20;;;7.97;;
80991;SDS011;70454;45.654;10.418;2023-06-22T07:43:56;11.25;;;5.65;;
80991;SDS011;70454;45.654;10.418;2023-06-22T07:46:22;11.05;;;5.90;;
80991;SDS011;70454;45.654;10.418;2023-06-22T07:48:47;17.75;;;7.15;;
80991;SDS011;70454;45.654;10.418;2023-06-22T07:51:13;16.30;;;6.85;;
80991;SDS011;70454;45.654;10.418;2023-06-22T07:53:40;21.42;;;7.75;;
80991;SDS011;70454;45.654;10.418;2023-06-22T07:56:06;17.90;;;7.53;;
80991;SDS011;70454;45.654;10.418;2023-06-22T07:58:32;19.55;;;6.13;;
80991;SDS011;70454;45.654;10.418;2023-06-22T08:00:58;12.60;;;6.57;;
80991;SDS011;70454;45.654;10.418;2023-06-22T08:03:23;21.85;;;6.68;;
80991;SDS011;70454;45.654;10.418;2023-06-22T08:05:49;15.38;;;6.68;;
80991;SDS011;70454;45.654;10.418;2023-06-22T08:08:14;16.30;;;6.57;;
80991;SDS011;70454;45.654;10.418;2023-06-22T08:10:40;16.10;;;5.82;;
80991;SDS011;70454;45.654;10.418;2023-06-22T08:13:07;13.40;;;5.25;;
80991;SDS011;70454;45.654;10.418;2023-06-22T08:15:32;18.50;;;6.20;;
80991;SDS011;70454;45.654;10.418;2023-06-22T08:17:58;20.88;;;8.25;;
80991;SDS011;70454;45.654;10.418;2023-06-22T08:20:25;18.52;;;7.13;;
80991;SDS011;70454;45.654;10.418;2023-06-22T08:22:50;15.85;;;6.63;;
80991;SDS011;70454;45.654;10.418;2023-06-22T08:25:16;33.97;;;7.65;;
80991;SDS011;70454;45.654;10.418;2023-06-22T08:27:44;16.33;;;7.60;;
80991;SDS011;70454;45.654;10.418;2023-06-22T08:30:10;20.15;;;7.38;;
80991;SDS011;70454;45.654;10.418;2023-06-22T08:32:36;16.90;;;7.03;;
80991;SDS011;70454;45.654;10.418;2023-06-22T08:35:01;20.67;;;6.93;;
80991;SDS011;70454;45.654;10.418;2023-06-22T08:37:27;15.85;;;6.20;;
80991;SDS011;70454;45.654;10.418;2023-06-22T08:39:56;17.17;;;6.30;;
80991;SDS011;70454;45.654;10.418;2023-06-22T08:42:26;18.63;;;7.13;;
80991;SDS011;70454;45.654;10.418;2023-06-22T08:44:51;14.30;;;5.88;;
80991;SDS011;70454;45.654;10.418;2023-06-22T08:47:17;12.85;;;6.22;;
80991;SDS011;70454;45.654;10.418;2023-06-22T08:49:42;13.50;;;6.35;;
80991;SDS011;70454;45.654;10.418;2023-06-22T08:52:08;17.48;;;7.18;;
80991;SDS011;70454;45.654;10.418;2023-06-22T08:54:33;17.10;;;6.38;;
80991;SDS011;70454;45.654;10.418;2023-06-22T08:57:00;23.17;;;6.72;;
80991;SDS011;70454;45.654;10.418;2023-06-22T08:59:25;17.20;;;6.93;;
80991;SDS011;70454;45.654;10.418;2023-06-22T09:01:51;22.58;;;8.38;;
80991;SDS011;70454;45.654;10.418;2023-06-22T09:04:16;19.35;;;6.40;;
80991;SDS011;70454;45.654;10.418;2023-06-22T09:06:42;16.98;;;6.70;;
80991;SDS011;70454;45.654;10.418;2023-06-22T09:09:12;15.45;;;5.80;;
80991;SDS011;70454;45.654;10.418;2023-06-22T09:11:38;16.25;;;5.53;;
80991;SDS011;70454;45.654;10.418;2023-06-22T09:14:03;15.88;;;5.97;;
80991;SDS011;70454;45.654;10.418;2023-06-22T09:16:29;24.83;;;7.13;;
80991;SDS011;70454;45.654;10.418;2023-06-22T09:18:55;14.63;;;6.25;;
80991;SDS011;70454;45.654;10.418;2023-06-22T09:21:20;19.58;;;7.78;;
80991;SDS011;70454;45.654;10.418;2023-06-22T09:23:46;18.40;;;6.97;;
80991;SDS011;70454;45.654;10.418;2023-06-22T09:26:15;16.52;;;6.25;;
80991;SDS011;70454;45.654;10.418;2023-06-22T09:28:40;21.83;;;6.35;;
80991;SDS011;70454;45.654;10.418;2023-06-22T09:31:06;25.65;;;6.03;;
80991;SDS011;70454;45.654;10.418;2023-06-22T09:33:32;12.30;;;5.47;;
80991;SDS011;70454;45.654;10.418;2023-06-22T09:35:57;16.45;;;6.07;;
80991;SDS011;70454;45.654;10.418;2023-06-22T09:38:23;16.50;;;5.53;;
80991;SDS011;70454;45.654;10.418;2023-06-22T09:40:48;13.00;;;5.97;;
80991;SDS011;70454;45.654;10.418;2023-06-22T09:43:14;14.07;;;5.55;;
80991;SDS011;70454;45.654;10.418;2023-06-22T09:45:39;12.10;;;4.90;;
80991;SDS011;70454;45.654;10.418;2023-06-22T09:48:04;15.27;;;5.68;;
80991;SDS011;70454;45.654;10.418;2023-06-22T09:50:30;12.48;;;5.63;;
80991;SDS011;70454;45.654;10.418;2023-06-22T09:52:56;18.95;;;6.47;;
80991;SDS011;70454;45.654;10.418;2023-06-22T09:55:21;12.88;;;6.15;;
80991;SDS011;70454;45.654;10.418;2023-06-22T09:57:47;11.80;;;5.47;;
80991;SDS011;70454;45.654;10.418;2023-06-22T10:00:13;16.02;;;5.88;;
80991;SDS011;70454;45.654;10.418;2023-06-22T10:02:43;13.35;;;5.85;;
80991;SDS011;70454;45.654;10.418;2023-06-22T10:05:08;16.20;;;5.70;;
80991;SDS011;70454;45.654;10.418;2023-06-22T10:07:34;16.42;;;5.55;;
80991;SDS011;70454;45.654;10.418;2023-06-22T10:09:59;16.60;;;6.53;;
80991;SDS011;70454;45.654;10.418;2023-06-22T10:12:26;15.15;;;4.63;;
80991;SDS011;70454;45.654;10.418;2023-06-22T10:14:52;9.63;;;4.30;;
80991;SDS011;70454;45.654;10.418;2023-06-22T10:17:18;17.33;;;5.13;;
80991;SDS011;70454;45.654;10.418;2023-06-22T10:19:43;12.65;;;4.80;;
80991;SDS011;70454;45.654;10.418;2023-06-22T10:22:10;16.90;;;6.90;;
80991;SDS011;70454;45.654;10.418;2023-06-22T10:24:36;12.98;;;5.80;;
80991;SDS011;70454;45.654;10.418;2023-06-22T10:27:03;13.40;;;5.38;;
80991;SDS011;70454;45.654;10.418;2023-06-22T10:29:29;14.48;;;5.07;;
80991;SDS011;70454;45.654;10.418;2023-06-22T10:31:54;11.57;;;5.32;;
80991;SDS011;70454;45.654;10.418;2023-06-22T10:34:19;12.13;;;5.38;;
80991;SDS011;70454;45.654;10.418;2023-06-22T10:36:45;21.70;;;5.38;;
80991;SDS011;70454;45.654;10.418;2023-06-22T10:39:13;13.65;;;5.78;;
80991;SDS011;70454;45.654;10.418;2023-06-22T10:41:39;13.43;;;5.65;;
80991;SDS011;70454;45.654;10.418;2023-06-22T10:44:05;17.75;;;6.32;;
80991;SDS011;70454;45.654;10.418;2023-06-22T10:46:33;16.10;;;6.60;;
80991;SDS011;70454;45.654;10.418;2023-06-22T10:48:58;16.25;;;5.60;;
80991;SDS011;70454;45.654;10.418;2023-06-22T10:51:24;14.40;;;6.10;;
80991;SDS011;70454;45.654;10.418;2023-06-22T10:53:50;22.58;;;7.90;;
80991;SDS011;70454;45.654;10.418;2023-06-22T10:56:16;24.00;;;6.65;;
80991;SDS011;70454;45.654;10.418;2023-06-22T10:58:41;21.58;;;6.85;;
80991;SDS011;70454;45.654;10.418;2023-06-22T11:01:07;26.85;;;8.48;;
80991;SDS011;70454;45.654;10.418;2023-06-22T11:03:32;16.27;;;6.78;;
80991;SDS011;70454;45.654;10.418;2023-06-22T11:05:57;25.45;;;7.32;;
80991;SDS011;70454;45.654;10.418;2023-06-22T11:08:23;17.15;;;7.47;;
80991;SDS011;70454;45.654;10.418;2023-06-22T11:10:48;17.10;;;8.02;;
80991;SDS011;70454;45.654;10.418;2023-06-22T11:13:14;19.10;;;6.88;;
80991;SDS011;70454;45.654;10.418;2023-06-22T11:15:39;18.00;;;7.45;;
80991;SDS011;70454;45.654;10.418;2023-06-22T11:18:05;17.58;;;6.55;;
80991;SDS011;70454;45.654;10.418;2023-06-22T11:20:32;21.17;;;8.18;;
80991;SDS011;70454;45.654;10.418;2023-06-22T11:22:59;19.20;;;6.80;;
80991;SDS011;70454;45.654;10.418;2023-06-22T11:25:25;15.20;;;6.45;;
80991;SDS011;70454;45.654;10.418;2023-06-22T11:27:50;19.50;;;7.10;;
80991;SDS011;70454;45.654;10.418;2023-06-22T11:32:43;19.55;;;7.15;;
80991;SDS011;70454;45.654;10.418;2023-06-22T11:35:09;17.85;;;6.63;;
80991;SDS011;70454;45.654;10.418;2023-06-22T11:37:34;18.90;;;7.22;;
80991;SDS011;70454;45.654;10.418;2023-06-22T11:39:59;17.83;;;6.60;;
80991;SDS011;70454;45.654;10.418;2023-06-22T11:42:25;16.05;;;6.63;;
80991;SDS011;70454;45.654;10.418;2023-06-22T11:44:50;18.52;;;7.03;;
80991;SDS011;70454;45.654;10.418;2023-06-22T11:47:16;17.67;;;6.28;;
80991;SDS011;70454;45.654;10.418;2023-06-22T11:49:46;20.80;;;7.05;;
80991;SDS011;70454;45.654;10.418;2023-06-22T11:52:12;16.75;;;7.43;;
80991;SDS011;70454;45.654;10.418;2023-06-22T11:54:37;21.20;;;10.25;;
80991;SDS011;70454;45.654;10.418;2023-06-22T11:57:03;18.02;;;6.75;;
80991;SDS011;70454;45.654;10.418;2023-06-22T11:59:29;17.73;;;6.97;;
80991;SDS011;70454;45.654;10.418;2023-06-22T12:01:54;18.25;;;6.63;;
80991;SDS011;70454;45.654;10.418;2023-06-22T12:04:20;15.68;;;6.90;;
80991;SDS011;70454;45.654;10.418;2023-06-22T12:06:45;18.90;;;7.38;;
80991;SDS011;70454;45.654;10.418;2023-06-22T12:09:11;15.02;;;6.55;;
80991;SDS011;70454;45.654;10.418;2023-06-22T12:11:38;25.20;;;8.18;;
80991;SDS011;70454;45.654;10.418;2023-06-22T12:14:04;15.52;;;6.90;;
80991;SDS011;70454;45.654;10.418;2023-06-22T12:16:29;21.42;;;8.00;;
80991;SDS011;70454;45.654;10.418;2023-06-22T12:18:55;21.33;;;7.95;;
80991;SDS011;70454;45.654;10.418;2023-06-22T12:21:20;16.42;;;6.82;;
80991;SDS011;70454;45.654;10.418;2023-06-22T12:23:46;24.48;;;7.32;;
80991;SDS011;70454;45.654;10.418;2023-06-22T12:26:11;21.27;;;6.47;;
80991;SDS011;70454;45.654;10.418;2023-06-22T12:28:37;17.67;;;6.57;;
80991;SDS011;70454;45.654;10.418;2023-06-22T12:31:02;13.85;;;6.63;;
80991;SDS011;70454;45.654;10.418;2023-06-22T12:33:27;17.60;;;7.45;;
80991;SDS011;70454;45.654;10.418;2023-06-22T12:35:53;21.77;;;7.43;;
80991;SDS011;70454;45.654;10.418;2023-06-22T12:38:18;14.38;;;6.57;;
80991;SDS011;70454;45.654;10.418;2023-06-22T12:40:44;18.20;;;6.53;;
80991;SDS011;70454;45.654;10.418;2023-06-22T12:43:09;21.52;;;8.02;;
80991;SDS011;70454;45.654;10.418;2023-06-22T12:45:34;18.48;;;6.95;;
80991;SDS011;70454;45.654;10.418;2023-06-22T12:48:00;20.35;;;7.88;;
80991;SDS011;70454;45.654;10.418;2023-06-22T12:50:26;15.57;;;7.10;;
80991;SDS011;70454;45.654;10.418;2023-06-22T12:52:51;15.55;;;7.63;;
80991;SDS011;70454;45.654;10.418;2023-06-22T12:55:17;11.55;;;6.25;;
80991;SDS011;70454;45.654;10.418;2023-06-22T12:57:42;16.60;;;6.75;;
80991;SDS011;70454;45.654;10.418;2023-06-22T13:00:08;16.33;;;6.43;;
80991;SDS011;70454;45.654;10.418;2023-06-22T13:02:35;20.00;;;6.85;;
80991;SDS011;70454;45.654;10.418;2023-06-22T13:05:01;17.80;;;7.05;;
80991;SDS011;70454;45.654;10.418;2023-06-22T13:07:27;15.75;;;6.80;;
80991;SDS011;70454;45.654;10.418;2023-06-22T13:09:52;20.08;;;7.03;;
80991;SDS011;70454;45.654;10.418;2023-06-22T13:12:18;14.43;;;6.45;;
80991;SDS011;70454;45.654;10.418;2023-06-22T13:14:45;15.57;;;7.03;;
80991;SDS011;70454;45.654;10.418;2023-06-22T13:17:12;12.57;;;6.45;;
80991;SDS011;70454;45.654;10.418;2023-06-22T13:19:37;17.70;;;6.55;;
80991;SDS011;70454;45.654;10.418;2023-06-22T13:22:03;14.25;;;6.68;;
80991;SDS011;70454;45.654;10.418;2023-06-22T13:24:29;17.65;;;6.57;;
80991;SDS011;70454;45.654;10.418;2023-06-22T13:26:54;14.20;;;6.35;;
80991;SDS011;70454;45.654;10.418;2023-06-22T13:29:20;17.05;;;7.03;;
80991;SDS011;70454;45.654;10.418;2023-06-22T13:31:45;18.35;;;6.75;;
80991;SDS011;70454;45.654;10.418;2023-06-22T13:34:11;15.70;;;7.47;;
80991;SDS011;70454;45.654;10.418;2023-06-22T13:36:37;15.70;;;7.43;;
80991;SDS011;70454;45.654;10.418;2023-06-22T13:39:02;21.65;;;6.80;;
80991;SDS011;70454;45.654;10.418;2023-06-22T13:41:28;14.77;;;7.13;;
80991;SDS011;70454;45.654;10.418;2023-06-22T13:44:03;20.65;;;7.55;;
80991;SDS011;70454;45.654;10.418;2023-06-22T13:46:28;13.32;;;6.15;;
80991;SDS011;70454;45.654;10.418;2023-06-22T13:48:54;18.58;;;6.45;;
80991;SDS011;70454;45.654;10.418;2023-06-22T13:51:19;15.13;;;6.40;;
80991;SDS011;70454;45.654;10.418;2023-06-22T13:53:45;12.45;;;6.45;;
80991;SDS011;70454;45.654;10.418;2023-06-22T13:56:18;18.27;;;6.15;;
80991;SDS011;70454;45.654;10.418;2023-06-22T13:58:44;21.80;;;7.40;;
80991;SDS011;70454;45.654;10.418;2023-06-22T14:01:17;16.58;;;6.40;;
80991;SDS011;70454;45.654;10.418;2023-06-22T14:03:43;18.92;;;5.95;;
80991;SDS011;70454;45.654;10.418;2023-06-22T14:06:10;11.70;;;6.32;;
80991;SDS011;70454;45.654;10.418;2023-06-22T14:08:37;10.98;;;5.70;;
80991;SDS011;70454;45.654;10.418;2023-06-22T14:11:02;14.60;;;6.50;;
80991;SDS011;70454;45.654;10.418;2023-06-22T14:13:28;19.48;;;7.40;;
80991;SDS011;70454;45.654;10.418;2023-06-22T14:15:53;12.75;;;5.38;;
80991;SDS011;70454;45.654;10.418;2023-06-22T14:18:19;15.00;;;6.93;;
80991;SDS011;70454;45.654;10.418;2023-06-22T14:20:44;11.88;;;5.60;;
80991;SDS011;70454;45.654;10.418;2023-06-22T14:23:11;17.00;;;6.30;;
80991;SDS011;70454;45.654;10.418;2023-06-22T14:25:36;14.20;;;6.57;;
80991;SDS011;70454;45.654;10.418;2023-06-22T14:28:02;12.65;;;6.53;;